createdAt,value
2022-08-20T00:00:08.491Z,98363.88
2022-08-20T00:02:35.529Z,98373.16
2022-08-20T00:05:02.630Z,98362.69
2022-08-20T00:07:29.687Z,98363.06
2022-08-20T00:09:57.060Z,98361.75
2022-08-20T00:12:24.110Z,98364.41
2022-08-20T00:14:51.158Z,98364.94
2022-08-20T00:17:18.206Z,98362.97
2022-08-20T00:19:45.252Z,98359.00
2022-08-20T00:22:13.640Z,98374.00
2022-08-20T00:24:40.685Z,98361.81
2022-08-20T00:27:07.713Z,98364.66
2022-08-20T00:29:34.798Z,98353.44
2022-08-20T00:32:01.831Z,98360.72
2022-08-20T00:34:28.863Z,98358.09
2022-08-20T00:36:55.895Z,98362.50
2022-08-20T00:39:22.955Z,98360.88
2022-08-20T00:41:51.955Z,98358.44
2022-08-20T00:44:19.407Z,98347.22
2022-08-20T00:46:46.446Z,98358.75
2022-08-20T00:49:13.485Z,98363.22
2022-08-20T00:51:43.949Z,98369.31
2022-08-20T00:54:11.204Z,98366.66
2022-08-20T00:56:38.242Z,98372.09
2022-08-20T00:59:05.290Z,98367.84
2022-08-20T01:01:34.562Z,98372.09
2022-08-20T01:04:21.566Z,98381.00
2022-08-20T01:06:48.629Z,98372.28
2022-08-20T01:09:15.756Z,98379.38
2022-08-20T01:11:42.839Z,98382.19
2022-08-20T01:14:31.508Z,98372.47
2022-08-20T01:16:58.577Z,98379.56
2022-08-20T01:19:29.468Z,98377.75
2022-08-20T01:21:56.955Z,98377.91
2022-08-20T01:24:24.003Z,98369.16
2022-08-20T01:26:51.048Z,98378.09
2022-08-20T01:29:18.251Z,98367.53
2022-08-20T01:31:45.303Z,98364.25
2022-08-20T01:34:12.415Z,98363.44
2022-08-20T01:36:42.991Z,98362.59
2022-08-20T01:39:12.663Z,98366.88
2022-08-20T01:41:39.762Z,98363.59
2022-08-20T01:44:10.979Z,98362.78
2022-08-20T01:46:44.254Z,98362.78
2022-08-20T01:49:12.415Z,98361.94
2022-08-20T01:51:40.851Z,98362.94
2022-08-20T01:54:07.935Z,98364.75
2022-08-20T01:56:35.816Z,98361.13
2022-08-20T01:59:02.866Z,98361.31
2022-08-20T02:01:29.967Z,98365.91
2022-08-20T02:03:57.151Z,98368.56
2022-08-20T02:06:27.219Z,98370.38
2022-08-20T02:08:54.471Z,98373.81
2022-08-20T02:11:21.544Z,98375.66
2022-08-20T02:13:49.717Z,98370.38
2022-08-20T02:16:16.760Z,98370.56
2022-08-20T02:18:43.785Z,98378.63
2022-08-20T02:21:10.822Z,98373.34
2022-08-20T02:23:37.939Z,98375.00
2022-08-20T02:26:07.445Z,98375.00
2022-08-20T02:28:34.742Z,98376.84
2022-08-20T02:31:03.304Z,98369.91
2022-08-20T02:33:30.400Z,98367.44
2022-08-20T02:35:57.440Z,98370.09
2022-08-20T02:38:24.507Z,98364.81
2022-08-20T02:40:51.985Z,98363.19
2022-08-20T02:43:20.237Z,98357.09
2022-08-20T02:45:47.374Z,98363.19
2022-08-20T02:48:15.568Z,98365.97
2022-08-20T02:50:42.724Z,98368.59
2022-08-20T02:53:12.528Z,98357.25
2022-08-20T02:55:39.715Z,98363.31
2022-08-20T02:58:06.754Z,98365.16
2022-08-20T03:00:38.444Z,98359.88
2022-08-20T03:03:05.839Z,98362.69
2022-08-20T03:05:32.875Z,98359.25
2022-08-20T03:07:59.965Z,98362.84
2022-08-20T03:10:26.996Z,98362.84
2022-08-20T03:12:54.025Z,98365.47
2022-08-20T03:15:21.083Z,98369.78
2022-08-20T03:17:48.133Z,98365.47
2022-08-20T03:20:15.236Z,98364.66
2022-08-20T03:22:42.594Z,98366.31
2022-08-20T03:25:09.653Z,98364.66
2022-08-20T03:27:36.789Z,98357.91
2022-08-20T03:30:03.878Z,98357.91
2022-08-20T03:32:30.922Z,98359.72
2022-08-20T03:34:58.002Z,98357.09
2022-08-20T03:37:25.467Z,98357.91
2022-08-20T03:39:52.533Z,98356.28
2022-08-20T03:42:19.614Z,98362.38
2022-08-20T03:44:48.431Z,98364.19
2022-08-20T03:47:25.960Z,98365.00
2022-08-20T03:49:53.035Z,98365.19
2022-08-20T03:52:20.139Z,98365.19
2022-08-20T03:54:47.273Z,98366.19
2022-08-20T03:57:14.582Z,98363.56
2022-08-20T03:59:41.687Z,98367.00
2022-08-20T04:02:08.751Z,98373.28
2022-08-20T04:04:35.815Z,98374.09
2022-08-20T04:07:02.866Z,98383.81
2022-08-20T04:09:30.129Z,98387.25
2022-08-20T04:12:00.267Z,98382.16
2022-08-20T04:14:27.355Z,98385.59
2022-08-20T04:16:58.707Z,98383.97
2022-08-20T04:19:25.755Z,98383.97
2022-08-20T04:21:52.918Z,98393.69
2022-08-20T04:24:22.013Z,98401.59
2022-08-20T04:26:58.874Z,98406.03
2022-08-20T04:29:26.238Z,98406.84
2022-08-20T04:32:00.681Z,98410.50
2022-08-20T04:34:32.653Z,98406.19
2022-08-20T04:36:59.691Z,98407.03
2022-08-20T04:39:26.980Z,98410.66
2022-08-20T04:41:54.054Z,98414.09
2022-08-20T04:44:21.775Z,98407.19
2022-08-20T04:46:48.898Z,98414.09
2022-08-20T04:49:15.991Z,98409.00
2022-08-20T04:51:43.078Z,98406.38
2022-08-20T04:54:10.115Z,98413.47
2022-08-20T04:56:39.942Z,98417.91
2022-08-20T04:59:07.374Z,98423.19
2022-08-20T05:01:34.558Z,98419.53
2022-08-20T05:04:01.771Z,98415.28
2022-08-20T05:06:28.890Z,98420.69
2022-08-20T05:08:55.991Z,98422.38
2022-08-20T05:11:34.494Z,98418.88
2022-08-20T05:14:03.830Z,98421.50
2022-08-20T05:16:31.392Z,98418.88
2022-08-20T05:18:58.432Z,98411.97
2022-08-20T05:21:25.482Z,98410.16
2022-08-20T05:23:52.521Z,98412.13
2022-08-20T05:26:20.147Z,98418.88
2022-08-20T05:28:57.497Z,98425.97
2022-08-20T05:31:31.999Z,98418.25
2022-08-20T05:34:00.156Z,98419.06
2022-08-20T05:36:27.198Z,98420.88
2022-08-20T05:38:54.823Z,98424.47
2022-08-20T05:41:27.526Z,98435.03
2022-08-20T05:43:56.819Z,98434.06
2022-08-20T05:46:23.866Z,98440.13
2022-08-20T05:48:50.924Z,98431.56
2022-08-20T05:51:17.968Z,98435.03
2022-08-20T05:53:45.011Z,98428.94
2022-08-20T05:56:12.044Z,98431.56
2022-08-20T05:58:39.188Z,98428.94
2022-08-20T06:01:06.334Z,98425.44
2022-08-20T06:03:52.116Z,98434.19
2022-08-20T06:06:44.828Z,98435.34
2022-08-20T06:09:07.297Z,98440.44
2022-08-20T06:11:37.197Z,98445.06
2022-08-20T06:14:05.564Z,98444.88
2022-08-20T06:16:32.728Z,98445.88
2022-08-20T06:18:59.811Z,98452.78
2022-08-20T06:21:29.962Z,98451.78
2022-08-20T06:23:58.358Z,98453.59
2022-08-20T06:26:28.968Z,98458.88
2022-08-20T06:28:57.170Z,98460.69
2022-08-20T06:31:24.425Z,98455.44
2022-08-20T06:33:51.470Z,98458.25
2022-08-20T06:36:18.999Z,98455.59
2022-08-20T06:38:46.633Z,98459.69
2022-08-20T06:41:14.117Z,98452.97
2022-08-20T06:43:41.221Z,98457.25
2022-08-20T06:46:08.330Z,98461.69
2022-08-20T06:48:35.456Z,98462.34
2022-08-20T06:51:02.510Z,98455.44
2022-08-20T06:53:29.550Z,98458.88
2022-08-20T06:55:56.849Z,98462.34
2022-08-20T06:58:37.467Z,98469.25
2022-08-20T07:01:09.067Z,98462.34
2022-08-20T07:03:38.302Z,98464.81
2022-08-20T07:06:05.561Z,98463.84
2022-08-20T07:08:32.614Z,98463.84
2022-08-20T07:10:59.792Z,98466.31
2022-08-20T07:13:26.858Z,98461.88
2022-08-20T07:15:54.215Z,98455.75
2022-08-20T07:18:27.951Z,98465.47
2022-08-20T07:20:57.181Z,98470.91
2022-08-20T07:23:24.513Z,98462.38
2022-08-20T07:25:51.623Z,98472.06
2022-08-20T07:28:18.881Z,98457.09
2022-08-20T07:31:13.611Z,98461.19
2022-08-20T07:33:44.548Z,98457.59
2022-08-20T07:36:11.804Z,98462.00
2022-08-20T07:38:38.914Z,98465.63
2022-08-20T07:41:06.034Z,98471.59
2022-08-20T07:43:33.078Z,98476.19
2022-08-20T07:46:02.173Z,98480.31
2022-08-20T07:48:31.938Z,98479.97
2022-08-20T07:50:59.475Z,98474.69
2022-08-20T07:53:26.511Z,98485.06
2022-08-20T07:55:58.875Z,98473.53
2022-08-20T07:58:33.209Z,98472.69
2022-08-20T08:01:00.861Z,98483.25
2022-08-20T08:03:39.865Z,98486.53
2022-08-20T08:06:28.646Z,98486.69
2022-08-20T08:08:57.711Z,98486.53
2022-08-20T08:11:24.758Z,98487.38
2022-08-20T08:13:52.009Z,98490.81
2022-08-20T08:16:20.139Z,98495.28
2022-08-20T08:18:48.795Z,98480.28
2022-08-20T08:21:16.491Z,98483.56
2022-08-20T08:23:44.618Z,98480.94
2022-08-20T08:26:16.342Z,98489.81
2022-08-20T08:28:46.266Z,98479.28
2022-08-20T08:31:13.313Z,98485.38
2022-08-20T08:33:40.941Z,98494.13
2022-08-20T08:36:09.645Z,98490.47
2022-08-20T08:38:36.830Z,98496.75
2022-08-20T08:41:03.912Z,98494.94
2022-08-20T08:43:31.793Z,98493.28
2022-08-20T08:45:59.124Z,98504.66
2022-08-20T08:48:26.179Z,98498.38
2022-08-20T08:50:54.771Z,98500.22
2022-08-20T08:53:21.981Z,98507.28
2022-08-20T08:55:49.052Z,98514.03
2022-08-20T08:58:17.478Z,98507.13
2022-08-20T09:00:52.696Z,98508.75
2022-08-20T09:03:24.586Z,98511.56
2022-08-20T09:05:51.700Z,98514.03
2022-08-20T09:08:19.466Z,98519.28
2022-08-20T09:10:46.570Z,98520.13
2022-08-20T09:13:13.618Z,98516.50
2022-08-20T09:15:40.758Z,98519.16
2022-08-20T09:18:07.861Z,98520.13
2022-08-20T09:20:34.959Z,98516.50
2022-08-20T09:23:02.101Z,98513.88
2022-08-20T09:25:29.178Z,98509.41
2022-08-20T09:27:56.215Z,98516.50
2022-08-20T09:30:24.231Z,98516.31
2022-08-20T09:32:51.961Z,98525.06
2022-08-20T09:35:19.102Z,98529.31
2022-08-20T09:37:47.001Z,98533.44
2022-08-20T09:40:21.483Z,98525.88
2022-08-20T09:42:48.863Z,98526.53
2022-08-20T09:45:15.954Z,98538.09
2022-08-20T09:47:53.012Z,98525.72
2022-08-20T09:50:24.123Z,98531.00
2022-08-20T09:52:51.577Z,98522.72
2022-08-20T09:55:20.807Z,98520.28
2022-08-20T09:57:47.882Z,98521.09
2022-08-20T10:00:15.142Z,98528.84
2022-08-20T10:02:42.251Z,98523.56
2022-08-20T10:05:09.382Z,98524.22
2022-08-20T10:07:39.556Z,98528.47
2022-08-20T10:10:06.639Z,98523.22
2022-08-20T10:12:33.671Z,98519.59
2022-08-20T10:15:00.729Z,98522.38
2022-08-20T10:17:27.785Z,98523.06
2022-08-20T10:19:54.846Z,98512.50
2022-08-20T10:22:21.939Z,98520.41
2022-08-20T10:24:48.987Z,98521.25
2022-08-20T10:27:16.032Z,98527.19
2022-08-20T10:29:46.707Z,98529.97
2022-08-20T10:32:14.703Z,98528.34
2022-08-20T10:34:41.871Z,98522.25
2022-08-20T10:37:08.907Z,98529.97
2022-08-20T10:39:35.997Z,98529.97
2022-08-20T10:42:03.042Z,98529.81
2022-08-20T10:44:31.012Z,98525.50
2022-08-20T10:46:58.089Z,98530.63
2022-08-20T10:49:25.160Z,98527.81
2022-08-20T10:51:52.219Z,98517.28
2022-08-20T10:54:19.271Z,98524.19
2022-08-20T10:56:46.312Z,98521.53
2022-08-20T10:59:13.463Z,98515.31
2022-08-20T11:01:40.597Z,98511.81
2022-08-20T11:04:07.692Z,98510.84
2022-08-20T11:06:34.731Z,98511.66
2022-08-20T11:09:01.850Z,98517.75
2022-08-20T11:11:29.278Z,98512.31
2022-08-20T11:13:57.007Z,98517.56
2022-08-20T11:16:25.893Z,98510.34
2022-08-20T11:18:52.922Z,98510.50
2022-08-20T11:21:19.989Z,98508.69
2022-08-20T11:23:47.106Z,98509.50
2022-08-20T11:26:14.169Z,98509.50
2022-08-20T11:28:41.322Z,98506.69
2022-08-20T11:31:08.454Z,98504.06
2022-08-20T11:33:35.863Z,98511.16
2022-08-20T11:36:02.895Z,98491.88
2022-08-20T11:38:30.222Z,98496.81
2022-08-20T11:40:57.321Z,98489.91
2022-08-20T11:43:24.358Z,98497.63
2022-08-20T11:45:51.389Z,98488.91
2022-08-20T11:48:18.464Z,98488.56
2022-08-20T11:50:45.507Z,98491.53
2022-08-20T11:53:12.551Z,98491.22
2022-08-20T11:55:39.902Z,98486.91
2022-08-20T11:58:07.136Z,98487.56
2022-08-20T12:00:34.483Z,98495.16
2022-08-20T12:03:01.744Z,98491.69
2022-08-20T12:05:30.163Z,98489.88
2022-08-20T12:07:57.414Z,98487.06
2022-08-20T12:10:26.702Z,98485.41
2022-08-20T12:12:53.988Z,98482.59
2022-08-20T12:15:21.064Z,98488.88
2022-08-20T12:17:48.126Z,98489.06
2022-08-20T12:20:15.277Z,98492.31
2022-08-20T12:22:42.383Z,98493.00
2022-08-20T12:25:09.517Z,98489.53
2022-08-20T12:27:36.576Z,98493.00
2022-08-20T12:30:03.671Z,98487.53
2022-08-20T12:32:30.779Z,98488.34
2022-08-20T12:34:57.865Z,98489.00
2022-08-20T12:37:24.910Z,98491.47
2022-08-20T12:39:52.021Z,98487.50
2022-08-20T12:42:19.100Z,98481.72
2022-08-20T12:44:46.131Z,98484.22
2022-08-20T12:47:13.183Z,98489.50
2022-08-20T12:49:41.290Z,98486.03
2022-08-20T12:52:08.344Z,98486.03
2022-08-20T12:54:35.403Z,98481.56
2022-08-20T12:57:02.466Z,98484.88
2022-08-20T12:59:35.061Z,98487.50
2022-08-20T13:02:13.879Z,98490.97
2022-08-20T13:04:42.877Z,98490.97
2022-08-20T13:07:11.534Z,98492.63
2022-08-20T13:09:40.455Z,98490.81
2022-08-20T13:12:07.707Z,98495.28
2022-08-20T13:14:34.769Z,98488.19
2022-08-20T13:17:01.837Z,98492.63
2022-08-20T13:19:28.908Z,98486.50
2022-08-20T13:21:55.942Z,98495.44
2022-08-20T13:24:23.018Z,98489.16
2022-08-20T13:26:50.056Z,98484.06
2022-08-20T13:29:17.122Z,98480.09
2022-08-20T13:31:44.197Z,98481.91
2022-08-20T13:34:11.273Z,98478.59
2022-08-20T13:36:38.432Z,98475.00
2022-08-20T13:39:05.570Z,98474.00
2022-08-20T13:41:32.623Z,98464.09
2022-08-20T13:43:59.651Z,98461.47
2022-08-20T13:46:26.721Z,98459.66
2022-08-20T13:48:53.784Z,98452.56
2022-08-20T13:51:21.702Z,98452.38
2022-08-20T13:53:48.823Z,98440.84
2022-08-20T13:56:15.883Z,98449.56
2022-08-20T13:58:42.937Z,98445.28
2022-08-20T14:01:10.078Z,98446.94
2022-08-20T14:03:37.142Z,98451.84
2022-08-20T14:06:05.691Z,98457.13
2022-08-20T14:08:32.753Z,98450.19
2022-08-20T14:11:00.032Z,98454.66
2022-08-20T14:13:27.114Z,98464.06
2022-08-20T14:15:54.193Z,98459.59
2022-08-20T14:18:21.307Z,98457.97
2022-08-20T14:20:48.366Z,98460.41
2022-08-20T14:23:15.584Z,98459.59
2022-08-20T14:25:42.700Z,98450.69
2022-08-20T14:28:09.828Z,98454.94
2022-08-20T14:30:36.867Z,98457.59
2022-08-20T14:33:03.896Z,98459.59
2022-08-20T14:35:31.381Z,98458.78
2022-08-20T14:38:01.476Z,98460.22
2022-08-20T14:40:32.723Z,98448.69
2022-08-20T14:42:59.779Z,98453.97
2022-08-20T14:45:26.951Z,98452.50
2022-08-20T14:47:54.384Z,98454.13
2022-08-20T14:50:21.523Z,98464.69
2022-08-20T14:52:48.638Z,98456.78
2022-08-20T14:55:15.691Z,98468.00
2022-08-20T14:57:42.741Z,98470.78
2022-08-20T15:00:10.188Z,98474.06
2022-08-20T15:02:37.242Z,98465.34
2022-08-20T15:05:04.281Z,98462.72
2022-08-20T15:07:34.215Z,98468.63
2022-08-20T15:10:01.258Z,98463.19
2022-08-20T15:12:28.304Z,98464.53
2022-08-20T15:14:55.391Z,98473.91
2022-08-20T15:17:22.462Z,98466.97
2022-08-20T15:19:49.634Z,98465.81
2022-08-20T15:22:16.740Z,98467.66
2022-08-20T15:24:43.779Z,98459.88
2022-08-20T15:27:10.821Z,98451.16
2022-08-20T15:29:37.871Z,98457.91
2022-08-20T15:32:04.938Z,98458.72
2022-08-20T15:34:32.090Z,98455.91
2022-08-20T15:36:59.127Z,98450.00
2022-08-20T15:39:26.167Z,98453.25
2022-08-20T15:41:53.211Z,98451.63
2022-08-20T15:44:20.256Z,98455.28
2022-08-20T15:46:47.321Z,98461.38
2022-08-20T15:49:14.354Z,98466.81
2022-08-20T15:51:41.404Z,98470.28
2022-08-20T15:54:08.459Z,98485.28
2022-08-20T15:56:35.524Z,98486.25
2022-08-20T15:59:02.552Z,98484.44
2022-08-20T16:01:29.673Z,98502.75
2022-08-20T16:03:56.746Z,98500.28
2022-08-20T16:06:23.787Z,98497.63
2022-08-20T16:08:50.834Z,98493.22
2022-08-20T16:11:18.294Z,98495.00
2022-08-20T16:13:45.333Z,98501.28
2022-08-20T16:16:12.693Z,98496.00
2022-08-20T16:18:39.748Z,98491.38
2022-08-20T16:21:06.810Z,98501.28
2022-08-20T16:23:33.935Z,98497.81
2022-08-20T16:26:00.974Z,98502.44
2022-08-20T16:28:32.517Z,98498.97
2022-08-20T16:30:59.664Z,98507.06
2022-08-20T16:33:26.708Z,98502.81
2022-08-20T16:35:53.775Z,98505.44
2022-08-20T16:38:21.884Z,98505.44
2022-08-20T16:40:49.888Z,98509.88
2022-08-20T16:43:17.017Z,98506.25
2022-08-20T16:45:50.128Z,98502.81
2022-08-20T16:48:18.562Z,98508.22
2022-08-20T16:50:45.611Z,98507.41
2022-08-20T16:53:12.648Z,98511.88
2022-08-20T16:55:42.037Z,98508.41
2022-08-20T16:58:09.092Z,98512.22
2022-08-20T17:00:44.762Z,98515.66
2022-08-20T17:03:12.158Z,98517.16
2022-08-20T17:05:39.211Z,98510.41
2022-08-20T17:08:07.232Z,98513.22
2022-08-20T17:10:34.272Z,98523.78
2022-08-20T17:13:01.318Z,98530.53
2022-08-20T17:15:28.372Z,98534.94
2022-08-20T17:17:55.995Z,98541.56
2022-08-20T17:20:23.086Z,98545.03
2022-08-20T17:22:50.196Z,98533.66
2022-08-20T17:25:17.371Z,98543.72
2022-08-20T17:27:44.494Z,98539.59
2022-08-20T17:30:11.567Z,98544.53
2022-08-20T17:32:47.212Z,98549.81
2022-08-20T17:35:24.766Z,98545.53
2022-08-20T17:37:51.843Z,98552.44
2022-08-20T17:40:21.085Z,98551.81
2022-08-20T17:42:48.223Z,98554.47
2022-08-20T17:45:15.277Z,98545.03
2022-08-20T17:47:42.426Z,98550.31
2022-08-20T17:50:09.508Z,98550.50
2022-08-20T17:52:36.549Z,98556.56
2022-08-20T17:55:03.604Z,98554.13
2022-08-20T17:57:30.710Z,98551.50
2022-08-20T18:00:02.490Z,98553.13
2022-08-20T18:02:29.864Z,98558.41
2022-08-20T18:04:56.945Z,98563.81
2022-08-20T18:07:24.003Z,98565.63
2022-08-20T18:09:51.347Z,98565.00
2022-08-20T18:12:33.458Z,98556.09
2022-08-20T18:15:01.550Z,98561.56
2022-08-20T18:17:28.615Z,98553.63
2022-08-20T18:19:55.738Z,98550.00
2022-08-20T18:22:22.838Z,98560.72
2022-08-20T18:24:49.930Z,98558.25
2022-08-20T18:27:16.975Z,98562.69
2022-08-20T18:29:46.537Z,98553.97
2022-08-20T18:32:13.803Z,98558.09
2022-08-20T18:34:41.033Z,98566.16
2022-08-20T18:37:08.137Z,98572.91
2022-08-20T18:39:35.203Z,98567.16
2022-08-20T18:42:02.283Z,98571.63
2022-08-20T18:44:29.315Z,98566.34
2022-08-20T18:46:56.505Z,98574.41
2022-08-20T18:49:23.561Z,98584.13
2022-08-20T18:51:50.664Z,98580.69
2022-08-20T18:54:17.699Z,98574.72
2022-08-20T18:56:44.731Z,98575.59
2022-08-20T18:59:11.770Z,98572.09
2022-08-20T19:01:39.157Z,98576.56
2022-08-20T19:04:06.235Z,98579.38
2022-08-20T19:06:33.283Z,98579.56
2022-08-20T19:09:00.576Z,98581.19
2022-08-20T19:11:27.738Z,98584.63
2022-08-20T19:13:54.775Z,98588.91
2022-08-20T19:16:21.811Z,98581.19
2022-08-20T19:18:50.523Z,98585.78
2022-08-20T19:21:17.579Z,98583.34
2022-08-20T19:23:44.603Z,98580.69
2022-08-20T19:26:15.177Z,98579.88
2022-08-20T19:28:52.572Z,98584.34
2022-08-20T19:31:20.557Z,98583.47
2022-08-20T19:33:47.800Z,98580.69
2022-08-20T19:36:22.144Z,98580.69
2022-08-20T19:38:49.868Z,98576.56
2022-08-20T19:41:31.022Z,98573.94
2022-08-20T19:43:58.628Z,98572.94
2022-08-20T19:46:25.730Z,98569.66
2022-08-20T19:48:52.757Z,98566.84
2022-08-20T19:51:19.800Z,98568.66
2022-08-20T19:53:46.891Z,98568.66
2022-08-20T19:56:13.941Z,98573.94
2022-08-20T19:58:41.003Z,98570.66
2022-08-20T20:01:08.052Z,98575.09
2022-08-20T20:03:35.204Z,98587.44
2022-08-20T20:06:02.264Z,98580.34
2022-08-20T20:08:29.333Z,98575.09
2022-08-20T20:10:56.404Z,98573.44
2022-08-20T20:13:25.006Z,98576.28
2022-08-20T20:15:52.639Z,98577.28
2022-08-20T20:18:19.679Z,98576.41
2022-08-20T20:20:50.328Z,98576.41
2022-08-20T20:23:24.985Z,98579.91
2022-08-20T20:25:52.023Z,98578.09
2022-08-20T20:28:19.105Z,98583.34
2022-08-20T20:30:46.166Z,98578.22
2022-08-20T20:33:13.299Z,98580.72
2022-08-20T20:35:40.419Z,98572.31
2022-08-20T20:38:07.472Z,98570.50
2022-08-20T20:40:36.081Z,98581.88
2022-08-20T20:43:03.397Z,98585.31
2022-08-20T20:45:30.515Z,98584.69
2022-08-20T20:47:57.783Z,98574.97
2022-08-20T20:50:25.048Z,98573.28
2022-08-20T20:52:54.447Z,98574.28
2022-08-20T20:55:22.396Z,98570.84
2022-08-20T20:57:49.438Z,98573.47
2022-08-20T21:00:17.501Z,98571.00
2022-08-20T21:02:44.569Z,98575.28
2022-08-20T21:05:11.623Z,98562.25
2022-08-20T21:07:38.691Z,98569.19
2022-08-20T21:10:05.753Z,98565.75
2022-08-20T21:12:32.860Z,98565.91
2022-08-20T21:14:59.894Z,98579.91
2022-08-20T21:17:26.937Z,98578.25
2022-08-20T21:19:54.038Z,98572.16
2022-08-20T21:22:21.382Z,98574.81
2022-08-20T21:24:51.453Z,98574.97
2022-08-20T21:27:18.523Z,98574.97
2022-08-20T21:29:45.562Z,98574.97
2022-08-20T21:32:15.278Z,98579.25
2022-08-20T21:34:42.458Z,98575.94
2022-08-20T21:37:09.537Z,98581.22
2022-08-20T21:39:36.623Z,98571.50
2022-08-20T21:42:03.762Z,98579.59
2022-08-20T21:44:31.692Z,98577.94
2022-08-20T21:47:00.274Z,98575.31
2022-08-20T21:49:27.337Z,98573.50
2022-08-20T21:51:54.432Z,98572.81
2022-08-20T21:54:21.626Z,98575.47
2022-08-20T21:56:48.647Z,98576.44
2022-08-20T21:59:15.690Z,98575.47
2022-08-20T22:01:43.327Z,98566.91
2022-08-20T22:04:10.438Z,98565.09
2022-08-20T22:06:37.476Z,98569.53
2022-08-20T22:09:04.544Z,98560.81
2022-08-20T22:11:31.779Z,98560.81
2022-08-20T22:13:58.862Z,98562.63
2022-08-20T22:16:25.928Z,98569.53
2022-08-20T22:18:52.968Z,98553.06
2022-08-20T22:21:20.015Z,98561.97
2022-08-20T22:23:47.058Z,98555.88
2022-08-20T22:26:14.201Z,98561.97
2022-08-20T22:28:41.227Z,98570.06
2022-08-20T22:31:08.276Z,98569.06
2022-08-20T22:33:37.466Z,98572.50
2022-08-20T22:36:04.542Z,98571.69
2022-08-20T22:38:31.578Z,98569.19
2022-08-20T22:40:58.639Z,98577.97
2022-08-20T22:43:25.683Z,98571.84
2022-08-20T22:45:52.731Z,98562.16
2022-08-20T22:48:20.063Z,98564.78
2022-08-20T22:50:47.112Z,98559.66
2022-08-20T22:53:14.164Z,98555.22
2022-08-20T22:55:41.229Z,98564.13
2022-08-20T22:58:08.602Z,98564.28
2022-08-20T23:00:37.223Z,98558.03
2022-08-20T23:03:04.269Z,98561.47
2022-08-20T23:05:31.386Z,98566.94
2022-08-20T23:07:58.456Z,98569.56
2022-08-20T23:10:25.543Z,98569.72
2022-08-20T23:12:52.763Z,98569.72
2022-08-20T23:15:19.815Z,98563.63
2022-08-20T23:17:46.895Z,98565.44
2022-08-20T23:20:13.973Z,98567.06
2022-08-20T23:22:41.068Z,98568.06
2022-08-20T23:25:08.115Z,98559.34
2022-08-20T23:27:35.167Z,98553.25
2022-08-20T23:30:02.231Z,98551.59
2022-08-20T23:32:29.283Z,98550.78
2022-08-20T23:34:56.323Z,98549.81
2022-08-20T23:37:23.387Z,98548.00
2022-08-20T23:39:50.467Z,98552.44
2022-08-20T23:42:17.611Z,98554.06
2022-08-20T23:44:45.504Z,98550.78
2022-08-20T23:47:12.567Z,98552.59
2022-08-20T23:49:39.644Z,98542.06
2022-08-20T23:52:06.679Z,98550.13
2022-08-20T23:54:33.854Z,98544.03
2022-08-20T23:57:00.904Z,98541.41
2022-08-20T23:59:27.965Z,98543.19
